sensor_id;sensor_type;location;lat;lon;timestamp;P1;durP1;ratioP1;P2;durP2;ratioP2
2099;SDS011;1055;48.854;9.302;2022-08-01T00:01:51;7.57;;;3.77;;
2099;SDS011;1055;48.854;9.302;2022-08-01T00:04:17;6.43;;;3.23;;
2099;SDS011;1055;48.854;9.302;2022-08-01T00:06:43;6.90;;;3.63;;
2099;SDS011;1055;48.854;9.302;2022-08-01T00:09:08;6.37;;;3.70;;
2099;SDS011;1055;48.854;9.302;2022-08-01T00:11:34;7.20;;;3.27;;
2099;SDS011;1055;48.854;9.302;2022-08-01T00:13:59;6.77;;;3.53;;
2099;SDS011;1055;48.854;9.302;2022-08-01T00:16:26;8.07;;;3.30;;
2099;SDS011;1055;48.854;9.302;2022-08-01T00:18:52;7.33;;;3.77;;
2099;SDS011;1055;48.854;9.302;2022-08-01T00:21:18;7.07;;;3.33;;
2099;SDS011;1055;48.854;9.302;2022-08-01T00:23:43;6.20;;;3.20;;
2099;SDS011;1055;48.854;9.302;2022-08-01T00:26:10;6.63;;;3.23;;
2099;SDS011;1055;48.854;9.302;2022-08-01T00:28:37;6.40;;;3.70;;
2099;SDS011;1055;48.854;9.302;2022-08-01T00:31:03;7.17;;;3.67;;
2099;SDS011;1055;48.854;9.302;2022-08-01T00:33:28;6.53;;;3.70;;
2099;SDS011;1055;48.854;9.302;2022-08-01T00:35:54;6.57;;;3.03;;
2099;SDS011;1055;48.854;9.302;2022-08-01T00:38:20;7.07;;;3.30;;
2099;SDS011;1055;48.854;9.302;2022-08-01T00:40:45;6.80;;;4.10;;
2099;SDS011;1055;48.854;9.302;2022-08-01T00:43:11;8.30;;;3.50;;
2099;SDS011;1055;48.854;9.302;2022-08-01T00:45:37;6.57;;;3.27;;
2099;SDS011;1055;48.854;9.302;2022-08-01T00:48:02;6.53;;;3.37;;
2099;SDS011;1055;48.854;9.302;2022-08-01T00:50:28;6.67;;;3.53;;
2099;SDS011;1055;48.854;9.302;2022-08-01T00:52:54;7.40;;;3.80;;
2099;SDS011;1055;48.854;9.302;2022-08-01T00:55:20;7.37;;;3.53;;
2099;SDS011;1055;48.854;9.302;2022-08-01T00:57:46;6.23;;;3.30;;
2099;SDS011;1055;48.854;9.302;2022-08-01T01:00:13;7.50;;;3.50;;
2099;SDS011;1055;48.854;9.302;2022-08-01T01:02:39;5.87;;;3.20;;
2099;SDS011;1055;48.854;9.302;2022-08-01T01:05:05;6.97;;;3.23;;
2099;SDS011;1055;48.854;9.302;2022-08-01T01:10:16;7.47;;;4.20;;
2099;SDS011;1055;48.854;9.302;2022-08-01T01:12:52;6.83;;;3.60;;
2099;SDS011;1055;48.854;9.302;2022-08-01T01:15:30;6.10;;;3.20;;
2099;SDS011;1055;48.854;9.302;2022-08-01T01:29:09;6.97;;;4.03;;
2099;SDS011;1055;48.854;9.302;2022-08-01T01:32:00;6.50;;;3.80;;
2099;SDS011;1055;48.854;9.302;2022-08-01T01:34:49;6.30;;;3.80;;
2099;SDS011;1055;48.854;9.302;2022-08-01T01:37:18;8.23;;;4.10;;
2099;SDS011;1055;48.854;9.302;2022-08-01T01:39:46;7.77;;;4.40;;
2099;SDS011;1055;48.854;9.302;2022-08-01T01:42:15;7.70;;;4.07;;
2099;SDS011;1055;48.854;9.302;2022-08-01T01:44:42;6.70;;;4.10;;
2099;SDS011;1055;48.854;9.302;2022-08-01T01:47:11;6.00;;;3.63;;
2099;SDS011;1055;48.854;9.302;2022-08-01T01:49:39;8.90;;;4.00;;
2099;SDS011;1055;48.854;9.302;2022-08-01T01:52:06;7.87;;;3.80;;
2099;SDS011;1055;48.854;9.302;2022-08-01T01:54:35;6.80;;;3.70;;
2099;SDS011;1055;48.854;9.302;2022-08-01T01:57:04;9.73;;;4.20;;
2099;SDS011;1055;48.854;9.302;2022-08-01T01:59:31;6.70;;;4.00;;
2099;SDS011;1055;48.854;9.302;2022-08-01T02:01:59;8.87;;;4.17;;
2099;SDS011;1055;48.854;9.302;2022-08-01T02:04:28;6.83;;;4.07;;
2099;SDS011;1055;48.854;9.302;2022-08-01T02:06:55;7.70;;;4.77;;
2099;SDS011;1055;48.854;9.302;2022-08-01T02:09:22;6.47;;;3.63;;
2099;SDS011;1055;48.854;9.302;2022-08-01T02:11:49;6.57;;;3.47;;
2099;SDS011;1055;48.854;9.302;2022-08-01T02:14:16;7.13;;;3.90;;
2099;SDS011;1055;48.854;9.302;2022-08-01T02:16:44;7.03;;;3.63;;
2099;SDS011;1055;48.854;9.302;2022-08-01T02:19:13;13.70;;;4.03;;
2099;SDS011;1055;48.854;9.302;2022-08-01T02:21:47;7.20;;;4.10;;
2099;SDS011;1055;48.854;9.302;2022-08-01T02:27:15;7.10;;;4.17;;
2099;SDS011;1055;48.854;9.302;2022-08-01T02:30:06;8.10;;;3.60;;
2099;SDS011;1055;48.854;9.302;2022-08-01T02:32:38;7.80;;;4.07;;
2099;SDS011;1055;48.854;9.302;2022-08-01T02:35:10;6.37;;;3.90;;
2099;SDS011;1055;48.854;9.302;2022-08-01T02:37:38;6.87;;;3.70;;
2099;SDS011;1055;48.854;9.302;2022-08-01T02:40:06;7.80;;;3.70;;
2099;SDS011;1055;48.854;9.302;2022-08-01T02:42:34;8.43;;;3.77;;
2099;SDS011;1055;48.854;9.302;2022-08-01T02:45:03;6.63;;;3.43;;
2099;SDS011;1055;48.854;9.302;2022-08-01T02:47:30;6.87;;;4.30;;
2099;SDS011;1055;48.854;9.302;2022-08-01T02:49:58;7.13;;;3.90;;
2099;SDS011;1055;48.854;9.302;2022-08-01T02:52:25;8.00;;;4.10;;
2099;SDS011;1055;48.854;9.302;2022-08-01T02:54:54;8.40;;;4.57;;
2099;SDS011;1055;48.854;9.302;2022-08-01T02:57:21;9.57;;;4.23;;
2099;SDS011;1055;48.854;9.302;2022-08-01T02:59:48;6.57;;;4.00;;
2099;SDS011;1055;48.854;9.302;2022-08-01T03:02:15;6.57;;;3.70;;
2099;SDS011;1055;48.854;9.302;2022-08-01T03:04:42;6.90;;;4.10;;
2099;SDS011;1055;48.854;9.302;2022-08-01T03:07:09;7.97;;;4.50;;
2099;SDS011;1055;48.854;9.302;2022-08-01T03:09:39;10.77;;;4.30;;
2099;SDS011;1055;48.854;9.302;2022-08-01T03:12:10;6.40;;;3.60;;
2099;SDS011;1055;48.854;9.302;2022-08-01T03:14:39;7.60;;;4.50;;
2099;SDS011;1055;48.854;9.302;2022-08-01T03:17:07;7.00;;;4.10;;
2099;SDS011;1055;48.854;9.302;2022-08-01T03:19:34;6.90;;;4.07;;
2099;SDS011;1055;48.854;9.302;2022-08-01T03:22:02;8.07;;;4.60;;
2099;SDS011;1055;48.854;9.302;2022-08-01T03:24:33;7.53;;;4.33;;
2099;SDS011;1055;48.854;9.302;2022-08-01T03:27:02;6.93;;;4.10;;
2099;SDS011;1055;48.854;9.302;2022-08-01T03:29:28;7.13;;;3.77;;
2099;SDS011;1055;48.854;9.302;2022-08-01T03:31:56;8.20;;;4.00;;
2099;SDS011;1055;48.854;9.302;2022-08-01T03:34:23;7.60;;;4.03;;
2099;SDS011;1055;48.854;9.302;2022-08-01T03:39:47;9.03;;;4.07;;
2099;SDS011;1055;48.854;9.302;2022-08-01T03:42:20;7.00;;;3.90;;
2099;SDS011;1055;48.854;9.302;2022-08-01T03:44:57;8.00;;;3.80;;
2099;SDS011;1055;48.854;9.302;2022-08-01T03:47:31;8.73;;;3.90;;
2099;SDS011;1055;48.854;9.302;2022-08-01T03:49:58;7.93;;;3.77;;
2099;SDS011;1055;48.854;9.302;2022-08-01T03:52:27;7.37;;;3.77;;
2099;SDS011;1055;48.854;9.302;2022-08-01T03:54:54;7.70;;;4.20;;
2099;SDS011;1055;48.854;9.302;2022-08-01T03:57:22;7.03;;;3.93;;
2099;SDS011;1055;48.854;9.302;2022-08-01T03:59:50;6.33;;;3.73;;
2099;SDS011;1055;48.854;9.302;2022-08-01T04:02:16;7.73;;;4.13;;
2099;SDS011;1055;48.854;9.302;2022-08-01T04:04:43;7.67;;;4.67;;
2099;SDS011;1055;48.854;9.302;2022-08-01T04:07:25;8.23;;;4.00;;
2099;SDS011;1055;48.854;9.302;2022-08-01T04:09:53;6.83;;;4.20;;
2099;SDS011;1055;48.854;9.302;2022-08-01T04:12:19;7.00;;;4.00;;
2099;SDS011;1055;48.854;9.302;2022-08-01T04:14:45;7.10;;;4.10;;
2099;SDS011;1055;48.854;9.302;2022-08-01T04:17:11;8.23;;;3.93;;
2099;SDS011;1055;48.854;9.302;2022-08-01T04:19:37;8.00;;;4.20;;
2099;SDS011;1055;48.854;9.302;2022-08-01T04:22:03;9.60;;;4.80;;
2099;SDS011;1055;48.854;9.302;2022-08-01T04:24:29;6.80;;;3.80;;
2099;SDS011;1055;48.854;9.302;2022-08-01T04:26:57;8.30;;;3.50;;
2099;SDS011;1055;48.854;9.302;2022-08-01T04:29:25;8.47;;;4.27;;
2099;SDS011;1055;48.854;9.302;2022-08-01T04:31:52;10.23;;;4.57;;
2099;SDS011;1055;48.854;9.302;2022-08-01T04:34:21;7.30;;;4.20;;
2099;SDS011;1055;48.854;9.302;2022-08-01T04:36:49;7.37;;;4.30;;
2099;SDS011;1055;48.854;9.302;2022-08-01T04:39:18;8.53;;;3.80;;
2099;SDS011;1055;48.854;9.302;2022-08-01T04:41:45;7.33;;;3.90;;
2099;SDS011;1055;48.854;9.302;2022-08-01T04:44:13;8.40;;;3.80;;
2099;SDS011;1055;48.854;9.302;2022-08-01T04:46:39;6.37;;;3.60;;
2099;SDS011;1055;48.854;9.302;2022-08-01T04:49:06;8.93;;;4.70;;
2099;SDS011;1055;48.854;9.302;2022-08-01T04:51:34;7.40;;;3.60;;
2099;SDS011;1055;48.854;9.302;2022-08-01T04:54:00;7.40;;;4.20;;
2099;SDS011;1055;48.854;9.302;2022-08-01T04:56:26;8.03;;;4.03;;
2099;SDS011;1055;48.854;9.302;2022-08-01T04:58:52;7.70;;;4.23;;
2099;SDS011;1055;48.854;9.302;2022-08-01T05:01:38;7.43;;;3.13;;
2099;SDS011;1055;48.854;9.302;2022-08-01T05:04:03;6.90;;;3.50;;
2099;SDS011;1055;48.854;9.302;2022-08-01T05:06:29;7.40;;;4.10;;
2099;SDS011;1055;48.854;9.302;2022-08-01T05:08:55;7.50;;;3.90;;
2099;SDS011;1055;48.854;9.302;2022-08-01T05:11:21;6.80;;;3.77;;
2099;SDS011;1055;48.854;9.302;2022-08-01T05:13:47;7.33;;;3.80;;
2099;SDS011;1055;48.854;9.302;2022-08-01T05:16:13;6.37;;;3.37;;
2099;SDS011;1055;48.854;9.302;2022-08-01T05:18:39;8.30;;;3.83;;
2099;SDS011;1055;48.854;9.302;2022-08-01T05:21:04;6.97;;;3.60;;
2099;SDS011;1055;48.854;9.302;2022-08-01T05:23:30;8.60;;;3.60;;
2099;SDS011;1055;48.854;9.302;2022-08-01T05:25:56;6.23;;;3.30;;
2099;SDS011;1055;48.854;9.302;2022-08-01T05:28:21;6.37;;;3.60;;
2099;SDS011;1055;48.854;9.302;2022-08-01T05:30:47;6.77;;;3.50;;
2099;SDS011;1055;48.854;9.302;2022-08-01T05:33:13;7.60;;;3.73;;
2099;SDS011;1055;48.854;9.302;2022-08-01T05:35:38;7.10;;;3.73;;
2099;SDS011;1055;48.854;9.302;2022-08-01T05:38:04;8.53;;;3.57;;
2099;SDS011;1055;48.854;9.302;2022-08-01T05:40:29;6.20;;;3.20;;
2099;SDS011;1055;48.854;9.302;2022-08-01T05:42:55;6.70;;;3.30;;
2099;SDS011;1055;48.854;9.302;2022-08-01T05:45:21;6.80;;;3.50;;
2099;SDS011;1055;48.854;9.302;2022-08-01T05:47:46;6.70;;;3.27;;
2099;SDS011;1055;48.854;9.302;2022-08-01T05:50:12;6.70;;;3.20;;
2099;SDS011;1055;48.854;9.302;2022-08-01T05:52:38;6.37;;;3.50;;
2099;SDS011;1055;48.854;9.302;2022-08-01T05:55:04;8.43;;;3.10;;
2099;SDS011;1055;48.854;9.302;2022-08-01T05:57:30;8.37;;;3.60;;
2099;SDS011;1055;48.854;9.302;2022-08-01T05:59:56;9.90;;;3.60;;
2099;SDS011;1055;48.854;9.302;2022-08-01T06:02:21;7.47;;;3.23;;
2099;SDS011;1055;48.854;9.302;2022-08-01T06:04:47;7.27;;;3.23;;
2099;SDS011;1055;48.854;9.302;2022-08-01T06:07:12;6.27;;;3.20;;
2099;SDS011;1055;48.854;9.302;2022-08-01T06:09:38;6.70;;;3.37;;
2099;SDS011;1055;48.854;9.302;2022-08-01T06:12:04;8.23;;;3.00;;
2099;SDS011;1055;48.854;9.302;2022-08-01T06:14:29;6.60;;;3.03;;
2099;SDS011;1055;48.854;9.302;2022-08-01T06:16:55;5.83;;;2.63;;
2099;SDS011;1055;48.854;9.302;2022-08-01T06:19:21;7.60;;;2.87;;
2099;SDS011;1055;48.854;9.302;2022-08-01T06:21:46;5.47;;;2.53;;
2099;SDS011;1055;48.854;9.302;2022-08-01T06:24:12;5.97;;;2.97;;
2099;SDS011;1055;48.854;9.302;2022-08-01T06:26:38;7.40;;;2.93;;
2099;SDS011;1055;48.854;9.302;2022-08-01T06:29:04;6.23;;;2.70;;
2099;SDS011;1055;48.854;9.302;2022-08-01T06:31:29;5.90;;;3.00;;
2099;SDS011;1055;48.854;9.302;2022-08-01T06:33:56;6.20;;;2.40;;
2099;SDS011;1055;48.854;9.302;2022-08-01T06:36:22;6.40;;;2.80;;
2099;SDS011;1055;48.854;9.302;2022-08-01T06:38:48;6.30;;;2.80;;
2099;SDS011;1055;48.854;9.302;2022-08-01T06:41:13;7.07;;;2.60;;
2099;SDS011;1055;48.854;9.302;2022-08-01T06:43:39;16.73;;;2.57;;
2099;SDS011;1055;48.854;9.302;2022-08-01T06:46:04;5.90;;;2.37;;
2099;SDS011;1055;48.854;9.302;2022-08-01T06:48:30;6.10;;;2.50;;
2099;SDS011;1055;48.854;9.302;2022-08-01T06:50:56;6.37;;;2.60;;
2099;SDS011;1055;48.854;9.302;2022-08-01T06:53:35;6.70;;;2.27;;
2099;SDS011;1055;48.854;9.302;2022-08-01T06:56:02;6.00;;;2.80;;
2099;SDS011;1055;48.854;9.302;2022-08-01T06:58:28;7.30;;;2.90;;
2099;SDS011;1055;48.854;9.302;2022-08-01T07:00:54;5.50;;;2.57;;
2099;SDS011;1055;48.854;9.302;2022-08-01T07:03:20;6.63;;;2.30;;
2099;SDS011;1055;48.854;9.302;2022-08-01T07:05:46;8.43;;;2.93;;
2099;SDS011;1055;48.854;9.302;2022-08-01T07:08:11;5.90;;;2.10;;
2099;SDS011;1055;48.854;9.302;2022-08-01T07:10:37;7.00;;;2.53;;
2099;SDS011;1055;48.854;9.302;2022-08-01T07:13:02;6.13;;;2.70;;
2099;SDS011;1055;48.854;9.302;2022-08-01T07:15:28;7.90;;;2.97;;
2099;SDS011;1055;48.854;9.302;2022-08-01T07:17:54;6.23;;;2.33;;
2099;SDS011;1055;48.854;9.302;2022-08-01T07:20:19;5.80;;;2.27;;
2099;SDS011;1055;48.854;9.302;2022-08-01T07:22:45;6.80;;;2.67;;
2099;SDS011;1055;48.854;9.302;2022-08-01T07:25:11;6.80;;;2.60;;
2099;SDS011;1055;48.854;9.302;2022-08-01T07:27:36;7.10;;;2.40;;
2099;SDS011;1055;48.854;9.302;2022-08-01T07:30:03;6.00;;;2.60;;
2099;SDS011;1055;48.854;9.302;2022-08-01T07:32:30;5.20;;;2.20;;
2099;SDS011;1055;48.854;9.302;2022-08-01T07:34:56;5.83;;;2.60;;
2099;SDS011;1055;48.854;9.302;2022-08-01T07:37:21;6.20;;;2.50;;
2099;SDS011;1055;48.854;9.302;2022-08-01T07:39:48;7.70;;;2.73;;
2099;SDS011;1055;48.854;9.302;2022-08-01T07:42:14;5.47;;;2.37;;
2099;SDS011;1055;48.854;9.302;2022-08-01T07:44:40;5.87;;;2.30;;
2099;SDS011;1055;48.854;9.302;2022-08-01T07:47:06;7.37;;;2.60;;
2099;SDS011;1055;48.854;9.302;2022-08-01T07:49:32;5.77;;;2.57;;
2099;SDS011;1055;48.854;9.302;2022-08-01T07:51:57;7.13;;;3.10;;
2099;SDS011;1055;48.854;9.302;2022-08-01T07:54:23;5.70;;;2.50;;
2099;SDS011;1055;48.854;9.302;2022-08-01T07:56:50;6.00;;;2.00;;
2099;SDS011;1055;48.854;9.302;2022-08-01T07:59:16;7.83;;;2.50;;
2099;SDS011;1055;48.854;9.302;2022-08-01T08:01:47;5.60;;;2.40;;
2099;SDS011;1055;48.854;9.302;2022-08-01T08:04:14;7.77;;;2.60;;
2099;SDS011;1055;48.854;9.302;2022-08-01T08:06:40;6.80;;;2.80;;
2099;SDS011;1055;48.854;9.302;2022-08-01T08:09:06;7.10;;;2.63;;
2099;SDS011;1055;48.854;9.302;2022-08-01T08:11:31;6.13;;;2.63;;
2099;SDS011;1055;48.854;9.302;2022-08-01T08:13:57;5.63;;;3.00;;
2099;SDS011;1055;48.854;9.302;2022-08-01T08:16:23;6.13;;;2.70;;
2099;SDS011;1055;48.854;9.302;2022-08-01T08:18:48;8.10;;;3.00;;
2099;SDS011;1055;48.854;9.302;2022-08-01T08:21:14;6.53;;;2.70;;
2099;SDS011;1055;48.854;9.302;2022-08-01T08:23:39;5.60;;;2.70;;
2099;SDS011;1055;48.854;9.302;2022-08-01T08:26:24;5.90;;;2.47;;
2099;SDS011;1055;48.854;9.302;2022-08-01T08:28:50;7.77;;;3.10;;
2099;SDS011;1055;48.854;9.302;2022-08-01T08:31:16;8.37;;;3.20;;
2099;SDS011;1055;48.854;9.302;2022-08-01T08:33:41;5.67;;;2.50;;
2099;SDS011;1055;48.854;9.302;2022-08-01T08:36:07;6.27;;;2.80;;
2099;SDS011;1055;48.854;9.302;2022-08-01T08:38:33;5.80;;;2.90;;
2099;SDS011;1055;48.854;9.302;2022-08-01T08:40:59;7.27;;;2.83;;
2099;SDS011;1055;48.854;9.302;2022-08-01T08:43:25;6.70;;;2.93;;
2099;SDS011;1055;48.854;9.302;2022-08-01T08:45:51;8.17;;;2.77;;
2099;SDS011;1055;48.854;9.302;2022-08-01T08:48:17;8.57;;;3.43;;
2099;SDS011;1055;48.854;9.302;2022-08-01T08:50:43;7.20;;;2.83;;
2099;SDS011;1055;48.854;9.302;2022-08-01T08:53:11;6.60;;;2.80;;
2099;SDS011;1055;48.854;9.302;2022-08-01T08:55:39;5.70;;;3.07;;
2099;SDS011;1055;48.854;9.302;2022-08-01T08:58:09;7.23;;;3.07;;
2099;SDS011;1055;48.854;9.302;2022-08-01T09:00:37;7.60;;;2.67;;
2099;SDS011;1055;48.854;9.302;2022-08-01T09:03:05;6.73;;;2.90;;
2099;SDS011;1055;48.854;9.302;2022-08-01T09:05:30;8.00;;;2.83;;
2099;SDS011;1055;48.854;9.302;2022-08-01T09:07:56;8.37;;;3.00;;
2099;SDS011;1055;48.854;9.302;2022-08-01T09:10:22;6.80;;;3.33;;
2099;SDS011;1055;48.854;9.302;2022-08-01T09:15:39;6.90;;;3.03;;
2099;SDS011;1055;48.854;9.302;2022-08-01T09:18:06;6.53;;;3.00;;
2099;SDS011;1055;48.854;9.302;2022-08-01T09:20:32;6.27;;;3.20;;
2099;SDS011;1055;48.854;9.302;2022-08-01T09:23:00;8.77;;;3.80;;
2099;SDS011;1055;48.854;9.302;2022-08-01T09:25:26;6.37;;;3.30;;
2099;SDS011;1055;48.854;9.302;2022-08-01T09:28:05;8.40;;;4.20;;
2099;SDS011;1055;48.854;9.302;2022-08-01T09:30:37;9.70;;;3.77;;
2099;SDS011;1055;48.854;9.302;2022-08-01T09:33:06;7.83;;;3.70;;
2099;SDS011;1055;48.854;9.302;2022-08-01T09:35:33;6.07;;;3.60;;
2099;SDS011;1055;48.854;9.302;2022-08-01T09:38:14;7.77;;;4.73;;
2099;SDS011;1055;48.854;9.302;2022-08-01T09:40:48;6.90;;;3.97;;
2099;SDS011;1055;48.854;9.302;2022-08-01T09:43:16;7.70;;;5.07;;
2099;SDS011;1055;48.854;9.302;2022-08-01T09:45:42;8.33;;;4.77;;
2099;SDS011;1055;48.854;9.302;2022-08-01T09:48:08;7.20;;;4.20;;
2099;SDS011;1055;48.854;9.302;2022-08-01T09:50:44;8.20;;;4.50;;
2099;SDS011;1055;48.854;9.302;2022-08-01T09:53:11;8.73;;;4.57;;
2099;SDS011;1055;48.854;9.302;2022-08-01T09:55:38;8.23;;;4.90;;
2099;SDS011;1055;48.854;9.302;2022-08-01T09:58:05;8.27;;;5.23;;
2099;SDS011;1055;48.854;9.302;2022-08-01T10:00:32;6.93;;;4.40;;
2099;SDS011;1055;48.854;9.302;2022-08-01T10:02:58;10.40;;;5.60;;
2099;SDS011;1055;48.854;9.302;2022-08-01T10:05:34;6.93;;;4.67;;
2099;SDS011;1055;48.854;9.302;2022-08-01T10:08:02;8.73;;;5.20;;
2099;SDS011;1055;48.854;9.302;2022-08-01T10:10:29;8.67;;;5.43;;
2099;SDS011;1055;48.854;9.302;2022-08-01T10:12:57;9.17;;;4.83;;
2099;SDS011;1055;48.854;9.302;2022-08-01T10:15:24;8.67;;;4.30;;
2099;SDS011;1055;48.854;9.302;2022-08-01T10:17:53;7.50;;;4.83;;
2099;SDS011;1055;48.854;9.302;2022-08-01T10:20:21;7.50;;;3.90;;
2099;SDS011;1055;48.854;9.302;2022-08-01T10:22:49;7.00;;;4.60;;
2099;SDS011;1055;48.854;9.302;2022-08-01T10:25:18;8.33;;;4.17;;
2099;SDS011;1055;48.854;9.302;2022-08-01T10:27:46;7.70;;;4.20;;
2099;SDS011;1055;48.854;9.302;2022-08-01T10:30:20;7.90;;;4.63;;
2099;SDS011;1055;48.854;9.302;2022-08-01T10:32:46;6.60;;;4.00;;
2099;SDS011;1055;48.854;9.302;2022-08-01T10:35:12;6.47;;;3.50;;
2099;SDS011;1055;48.854;9.302;2022-08-01T10:37:42;6.93;;;4.03;;
2099;SDS011;1055;48.854;9.302;2022-08-01T10:40:13;6.27;;;3.70;;
2099;SDS011;1055;48.854;9.302;2022-08-01T10:42:41;5.93;;;3.93;;
2099;SDS011;1055;48.854;9.302;2022-08-01T10:45:09;6.20;;;3.60;;
2099;SDS011;1055;48.854;9.302;2022-08-01T10:53:15;7.40;;;4.00;;
2099;SDS011;1055;48.854;9.302;2022-08-01T10:55:48;6.40;;;3.70;;
2099;SDS011;1055;48.854;9.302;2022-08-01T11:01:17;6.80;;;4.00;;
2099;SDS011;1055;48.854;9.302;2022-08-01T11:04:08;5.80;;;3.30;;
2099;SDS011;1055;48.854;9.302;2022-08-01T11:07:02;9.40;;;3.47;;
2099;SDS011;1055;48.854;9.302;2022-08-01T11:09:31;6.40;;;3.87;;
2099;SDS011;1055;48.854;9.302;2022-08-01T11:12:12;6.80;;;4.20;;
2099;SDS011;1055;48.854;9.302;2022-08-01T11:15:15;7.00;;;4.20;;
2099;SDS011;1055;48.854;9.302;2022-08-01T11:30:45;7.30;;;3.93;;
2099;SDS011;1055;48.854;9.302;2022-08-01T11:33:13;8.57;;;3.97;;
2099;SDS011;1055;48.854;9.302;2022-08-01T11:41:11;7.20;;;3.50;;
2099;SDS011;1055;48.854;9.302;2022-08-01T11:49:28;6.50;;;4.03;;
2099;SDS011;1055;48.854;9.302;2022-08-01T11:52:06;7.50;;;4.00;;
2099;SDS011;1055;48.854;9.302;2022-08-01T11:54:52;8.07;;;3.50;;
2099;SDS011;1055;48.854;9.302;2022-08-01T12:02:26;7.30;;;3.70;;
2099;SDS011;1055;48.854;9.302;2022-08-01T12:05:04;7.67;;;3.70;;
2099;SDS011;1055;48.854;9.302;2022-08-01T12:07:37;9.37;;;3.80;;
2099;SDS011;1055;48.854;9.302;2022-08-01T12:12:34;8.90;;;3.97;;
2099;SDS011;1055;48.854;9.302;2022-08-01T12:15:06;18.47;;;4.27;;
2099;SDS011;1055;48.854;9.302;2022-08-01T12:17:37;6.20;;;3.40;;
2099;SDS011;1055;48.854;9.302;2022-08-01T12:20:08;6.30;;;3.90;;
2099;SDS011;1055;48.854;9.302;2022-08-01T12:22:35;6.30;;;3.70;;
2099;SDS011;1055;48.854;9.302;2022-08-01T12:25:08;6.07;;;3.33;;
2099;SDS011;1055;48.854;9.302;2022-08-01T12:27:38;6.63;;;3.47;;
2099;SDS011;1055;48.854;9.302;2022-08-01T12:30:09;5.80;;;3.10;;
2099;SDS011;1055;48.854;9.302;2022-08-01T12:32:40;5.90;;;3.30;;
2099;SDS011;1055;48.854;9.302;2022-08-01T12:35:09;6.13;;;3.10;;
2099;SDS011;1055;48.854;9.302;2022-08-01T12:37:40;6.47;;;3.30;;
2099;SDS011;1055;48.854;9.302;2022-08-01T12:40:28;6.40;;;3.40;;
2099;SDS011;1055;48.854;9.302;2022-08-01T12:42:55;5.73;;;3.27;;
2099;SDS011;1055;48.854;9.302;2022-08-01T12:45:27;6.53;;;3.60;;
2099;SDS011;1055;48.854;9.302;2022-08-01T12:47:55;8.20;;;3.70;;
2099;SDS011;1055;48.854;9.302;2022-08-01T12:50:26;5.90;;;3.40;;
2099;SDS011;1055;48.854;9.302;2022-08-01T12:52:54;5.90;;;3.30;;
2099;SDS011;1055;48.854;9.302;2022-08-01T12:55:21;6.00;;;3.67;;
2099;SDS011;1055;48.854;9.302;2022-08-01T12:57:50;6.07;;;3.40;;
2099;SDS011;1055;48.854;9.302;2022-08-01T13:00:28;6.20;;;3.27;;
2099;SDS011;1055;48.854;9.302;2022-08-01T13:03:04;5.60;;;3.33;;
2099;SDS011;1055;48.854;9.302;2022-08-01T13:05:41;6.77;;;3.67;;
2099;SDS011;1055;48.854;9.302;2022-08-01T13:08:11;6.20;;;2.97;;
2099;SDS011;1055;48.854;9.302;2022-08-01T13:10:38;6.40;;;3.70;;
2099;SDS011;1055;48.854;9.302;2022-08-01T13:13:04;7.03;;;3.33;;
2099;SDS011;1055;48.854;9.302;2022-08-01T13:15:32;6.03;;;3.60;;
2099;SDS011;1055;48.854;9.302;2022-08-01T13:18:01;5.67;;;3.30;;
2099;SDS011;1055;48.854;9.302;2022-08-01T13:20:46;6.90;;;3.00;;
2099;SDS011;1055;48.854;9.302;2022-08-01T13:23:16;5.90;;;3.00;;
2099;SDS011;1055;48.854;9.302;2022-08-01T13:25:49;5.87;;;3.17;;
2099;SDS011;1055;48.854;9.302;2022-08-01T13:28:18;7.50;;;3.10;;
2099;SDS011;1055;48.854;9.302;2022-08-01T13:30:51;5.67;;;2.90;;
2099;SDS011;1055;48.854;9.302;2022-08-01T13:33:20;6.47;;;3.43;;
2099;SDS011;1055;48.854;9.302;2022-08-01T13:35:48;5.60;;;3.00;;
2099;SDS011;1055;48.854;9.302;2022-08-01T13:38:15;6.00;;;3.47;;
2099;SDS011;1055;48.854;9.302;2022-08-01T13:40:40;7.70;;;3.00;;
2099;SDS011;1055;48.854;9.302;2022-08-01T13:43:06;7.77;;;3.10;;
2099;SDS011;1055;48.854;9.302;2022-08-01T13:45:31;6.10;;;2.93;;
2099;SDS011;1055;48.854;9.302;2022-08-01T13:47:58;6.10;;;2.97;;
2099;SDS011;1055;48.854;9.302;2022-08-01T13:50:24;5.70;;;2.80;;
2099;SDS011;1055;48.854;9.302;2022-08-01T13:52:50;6.80;;;2.53;;
2099;SDS011;1055;48.854;9.302;2022-08-01T13:55:15;5.90;;;3.33;;
2099;SDS011;1055;48.854;9.302;2022-08-01T13:57:41;8.23;;;2.60;;
2099;SDS011;1055;48.854;9.302;2022-08-01T14:00:07;6.10;;;2.47;;
2099;SDS011;1055;48.854;9.302;2022-08-01T14:02:34;5.67;;;2.90;;
2099;SDS011;1055;48.854;9.302;2022-08-01T14:05:00;5.40;;;2.43;;
2099;SDS011;1055;48.854;9.302;2022-08-01T14:07:26;7.23;;;3.57;;
2099;SDS011;1055;48.854;9.302;2022-08-01T14:09:52;6.27;;;2.80;;
2099;SDS011;1055;48.854;9.302;2022-08-01T14:12:18;7.77;;;3.17;;
2099;SDS011;1055;48.854;9.302;2022-08-01T14:14:44;5.47;;;2.43;;
2099;SDS011;1055;48.854;9.302;2022-08-01T14:17:10;5.53;;;2.80;;
2099;SDS011;1055;48.854;9.302;2022-08-01T14:19:35;5.97;;;3.07;;
2099;SDS011;1055;48.854;9.302;2022-08-01T14:22:01;6.20;;;2.53;;
2099;SDS011;1055;48.854;9.302;2022-08-01T14:24:27;6.20;;;2.93;;
2099;SDS011;1055;48.854;9.302;2022-08-01T14:26:53;7.33;;;2.50;;
2099;SDS011;1055;48.854;9.302;2022-08-01T14:29:18;6.30;;;2.90;;
2099;SDS011;1055;48.854;9.302;2022-08-01T14:31:44;7.23;;;3.00;;
2099;SDS011;1055;48.854;9.302;2022-08-01T14:34:10;6.07;;;2.70;;
2099;SDS011;1055;48.854;9.302;2022-08-01T14:36:37;6.50;;;2.87;;
2099;SDS011;1055;48.854;9.302;2022-08-01T14:39:03;5.50;;;2.60;;
2099;SDS011;1055;48.854;9.302;2022-08-01T14:41:29;5.80;;;2.57;;
2099;SDS011;1055;48.854;9.302;2022-08-01T14:43:55;5.50;;;2.30;;
2099;SDS011;1055;48.854;9.302;2022-08-01T14:46:20;5.50;;;2.70;;
2099;SDS011;1055;48.854;9.302;2022-08-01T14:48:46;6.33;;;2.70;;
2099;SDS011;1055;48.854;9.302;2022-08-01T14:51:12;5.90;;;3.10;;
2099;SDS011;1055;48.854;9.302;2022-08-01T14:53:38;5.90;;;2.87;;
2099;SDS011;1055;48.854;9.302;2022-08-01T14:56:04;6.03;;;2.60;;
2099;SDS011;1055;48.854;9.302;2022-08-01T14:58:30;6.10;;;2.93;;
2099;SDS011;1055;48.854;9.302;2022-08-01T15:00:56;9.00;;;3.40;;
2099;SDS011;1055;48.854;9.302;2022-08-01T15:03:22;6.60;;;3.10;;
2099;SDS011;1055;48.854;9.302;2022-08-01T15:05:47;6.00;;;3.10;;
2099;SDS011;1055;48.854;9.302;2022-08-01T15:08:13;6.40;;;2.73;;
2099;SDS011;1055;48.854;9.302;2022-08-01T15:10:39;6.53;;;2.80;;
2099;SDS011;1055;48.854;9.302;2022-08-01T15:13:05;7.90;;;3.03;;
2099;SDS011;1055;48.854;9.302;2022-08-01T15:15:30;7.00;;;2.97;;
2099;SDS011;1055;48.854;9.302;2022-08-01T15:17:56;5.83;;;2.97;;
2099;SDS011;1055;48.854;9.302;2022-08-01T15:20:22;6.10;;;2.90;;
2099;SDS011;1055;48.854;9.302;2022-08-01T15:22:47;6.27;;;3.17;;
2099;SDS011;1055;48.854;9.302;2022-08-01T15:25:13;5.40;;;2.67;;
2099;SDS011;1055;48.854;9.302;2022-08-01T15:27:39;6.83;;;2.80;;
2099;SDS011;1055;48.854;9.302;2022-08-01T15:30:05;8.00;;;2.27;;
2099;SDS011;1055;48.854;9.302;2022-08-01T15:32:31;5.70;;;2.77;;
2099;SDS011;1055;48.854;9.302;2022-08-01T15:34:57;6.60;;;2.90;;
2099;SDS011;1055;48.854;9.302;2022-08-01T15:37:22;6.53;;;2.50;;
2099;SDS011;1055;48.854;9.302;2022-08-01T15:39:48;5.50;;;2.73;;
2099;SDS011;1055;48.854;9.302;2022-08-01T15:42:15;5.97;;;2.50;;
2099;SDS011;1055;48.854;9.302;2022-08-01T15:44:41;7.30;;;2.83;;
2099;SDS011;1055;48.854;9.302;2022-08-01T15:47:08;5.70;;;2.20;;
2099;SDS011;1055;48.854;9.302;2022-08-01T15:49:34;5.60;;;2.57;;
2099;SDS011;1055;48.854;9.302;2022-08-01T15:52:05;5.57;;;2.37;;
2099;SDS011;1055;48.854;9.302;2022-08-01T15:54:32;5.50;;;2.40;;
2099;SDS011;1055;48.854;9.302;2022-08-01T15:56:58;5.43;;;2.40;;
2099;SDS011;1055;48.854;9.302;2022-08-01T15:59:24;5.20;;;2.40;;
2099;SDS011;1055;48.854;9.302;2022-08-01T16:01:51;5.77;;;2.30;;
2099;SDS011;1055;48.854;9.302;2022-08-01T16:04:17;5.30;;;2.37;;
2099;SDS011;1055;48.854;9.302;2022-08-01T16:06:45;5.40;;;2.60;;
2099;SDS011;1055;48.854;9.302;2022-08-01T16:09:11;5.30;;;2.40;;
2099;SDS011;1055;48.854;9.302;2022-08-01T16:11:37;5.97;;;2.23;;
2099;SDS011;1055;48.854;9.302;2022-08-01T16:14:03;5.87;;;2.20;;
2099;SDS011;1055;48.854;9.302;2022-08-01T16:16:29;5.03;;;2.13;;
2099;SDS011;1055;48.854;9.302;2022-08-01T16:18:54;5.50;;;2.40;;
2099;SDS011;1055;48.854;9.302;2022-08-01T16:21:20;5.07;;;2.10;;
2099;SDS011;1055;48.854;9.302;2022-08-01T16:23:48;5.27;;;2.20;;